createdAt,value
2024-03-12T00:01:11.706Z,100634.22
2024-03-12T00:06:42.567Z,100652.84
2024-03-12T00:12:00.734Z,100649.47
2024-03-12T00:17:29.457Z,100640.25
2024-03-12T00:22:45.973Z,100595.97
2024-03-12T00:28:03.151Z,100618.88
2024-03-12T00:33:20.886Z,100603.84
2024-03-12T00:38:23.227Z,100587.59
2024-03-12T00:43:27.392Z,100583.63
2024-03-12T00:48:26.283Z,100588.38
2024-03-12T00:53:26.413Z,100585.41
2024-03-12T00:58:27.534Z,100516.69
2024-03-12T01:03:27.184Z,100563.22
2024-03-12T01:08:32.490Z,100612.22
2024-03-12T01:13:29.856Z,100617.75
2024-03-12T01:18:27.954Z,100610.03
2024-03-12T01:23:27.719Z,100540.34
2024-03-12T01:28:29.095Z,100594.00
2024-03-12T01:33:32.923Z,100589.69
2024-03-12T01:38:43.247Z,100555.13
2024-03-12T01:44:09.364Z,100572.53
2024-03-12T01:49:14.922Z,100585.38
2024-03-12T01:54:27.552Z,100528.19
2024-03-12T01:59:30.952Z,100558.56
2024-03-12T02:04:32.083Z,100555.66
2024-03-12T02:09:50.534Z,100546.47
2024-03-12T02:14:54.947Z,100562.81
2024-03-12T02:20:00.944Z,100561.19
2024-03-12T02:25:07.200Z,100529.47
2024-03-12T02:30:17.189Z,100508.72
2024-03-12T02:35:20.694Z,100529.41
2024-03-12T02:40:26.991Z,100426.06
2024-03-12T02:45:33.641Z,100507.66
2024-03-12T02:50:42.108Z,100547.31
2024-03-12T02:55:46.932Z,100526.41
2024-03-12T03:00:57.162Z,100510.03
2024-03-12T03:05:58.900Z,100489.75
2024-03-12T03:11:10.492Z,100541.69
2024-03-12T03:16:12.809Z,100445.47
2024-03-12T03:21:22.694Z,100520.34
2024-03-12T03:26:25.756Z,100442.84
2024-03-12T03:31:30.360Z,100558.59
2024-03-12T03:36:33.412Z,100473.25
2024-03-12T03:41:39.794Z,100435.53
2024-03-12T03:46:38.167Z,100470.56
2024-03-12T03:51:38.769Z,100529.81
2024-03-12T03:56:48.488Z,100514.78
2024-03-12T04:01:53.318Z,100560.78
2024-03-12T04:07:30.503Z,100509.97
2024-03-12T04:12:56.897Z,100468.09
2024-03-12T04:17:55.133Z,100533.47
2024-03-12T04:22:55.429Z,100524.81
2024-03-12T04:27:54.464Z,100521.63
2024-03-12T04:33:00.073Z,100497.50
2024-03-12T04:38:00.600Z,100479.53
2024-03-12T04:42:58.926Z,100491.03
2024-03-12T04:47:57.728Z,100513.94
2024-03-12T04:52:55.876Z,100538.22
2024-03-12T04:57:56.641Z,100533.91
2024-03-12T05:20:59.847Z,100416.84
2024-03-12T05:27:25.460Z,100515.94
2024-03-12T05:32:50.211Z,100459.38
2024-03-12T05:38:15.520Z,100506.91
2024-03-12T05:43:37.566Z,100535.72
2024-03-12T05:48:46.758Z,100515.13
2024-03-12T05:54:22.483Z,100528.66
2024-03-12T05:59:43.614Z,100515.75
2024-03-12T06:04:47.346Z,100533.81
2024-03-12T06:09:46.441Z,100530.47
2024-03-12T06:14:55.046Z,100527.19
2024-03-12T06:19:52.952Z,100508.59
2024-03-12T06:24:54.813Z,100459.97
2024-03-12T06:30:07.841Z,100543.19
2024-03-12T06:35:14.846Z,100540.28
2024-03-12T06:40:17.766Z,100544.84
2024-03-12T06:45:29.114Z,100541.28
2024-03-12T06:50:44.705Z,100554.34
2024-03-12T06:56:10.433Z,100546.63
2024-03-12T07:01:21.604Z,100556.63
2024-03-12T07:06:20.941Z,100563.94
2024-03-12T07:11:35.360Z,100573.19
2024-03-12T07:17:14.899Z,100573.66
2024-03-12T07:28:48.253Z,100571.00
2024-03-12T07:34:20.773Z,100523.19
2024-03-12T07:39:42.260Z,100556.31
2024-03-12T07:45:34.051Z,100529.78
2024-03-12T07:50:46.551Z,100554.22
2024-03-12T07:56:04.922Z,100528.50
2024-03-12T08:07:24.498Z,100546.47
2024-03-12T08:12:45.348Z,100542.44
2024-03-12T08:24:11.532Z,100461.53
2024-03-12T08:29:08.852Z,100521.22
2024-03-12T08:34:07.087Z,100488.34
2024-03-12T08:39:11.929Z,100488.69
2024-03-12T08:44:10.104Z,100492.59
2024-03-12T08:49:11.671Z,100462.69
2024-03-12T08:54:10.282Z,100478.94
2024-03-12T08:59:09.521Z,100473.38
2024-03-12T09:04:36.502Z,100496.78
2024-03-12T09:11:14.144Z,100483.91
2024-03-12T09:17:07.814Z,100501.84
2024-03-12T09:28:20.245Z,100462.84
2024-03-12T09:33:20.628Z,100544.75
2024-03-12T09:38:31.385Z,100545.88
2024-03-12T09:43:34.709Z,100533.56
2024-03-12T09:48:34.951Z,100554.78
2024-03-12T09:53:33.915Z,100535.78
2024-03-12T09:58:31.412Z,100476.78
2024-03-12T10:03:30.531Z,100510.91
2024-03-12T10:08:31.864Z,100509.28
2024-03-12T10:13:33.535Z,100477.03
2024-03-12T10:19:01.595Z,100498.97
2024-03-12T10:24:19.737Z,100530.03
2024-03-12T10:29:19.941Z,100515.06
2024-03-12T10:34:20.498Z,100487.44
2024-03-12T10:39:29.787Z,100507.38
2024-03-12T10:44:32.756Z,100519.59
2024-03-12T10:49:31.392Z,100511.47
2024-03-12T10:54:35.525Z,100453.69
2024-03-12T10:59:38.292Z,100515.94
2024-03-12T11:04:38.154Z,100519.06
2024-03-12T11:09:39.008Z,100532.53
2024-03-12T11:14:49.722Z,100433.34
2024-03-12T11:19:53.109Z,100515.22
2024-03-12T11:24:51.994Z,100515.72
2024-03-12T11:30:19.404Z,100509.72
2024-03-12T11:35:30.293Z,100451.59
2024-03-12T11:40:29.505Z,100492.97
2024-03-12T11:45:39.175Z,100416.03
2024-03-12T11:50:40.162Z,100428.41
2024-03-12T11:55:59.720Z,100454.28
2024-03-12T12:00:59.576Z,100429.09
2024-03-12T12:06:00.125Z,100396.31
2024-03-12T12:11:05.997Z,100447.31
2024-03-12T12:16:05.507Z,100483.88
2024-03-12T12:21:09.910Z,100435.44
2024-03-12T12:26:12.582Z,100450.50
2024-03-12T12:31:17.006Z,100465.66
2024-03-12T12:36:16.874Z,100422.50
2024-03-12T12:41:14.741Z,100474.06
2024-03-12T12:46:20.834Z,100466.31
2024-03-12T12:51:20.802Z,100431.13
2024-03-12T12:56:19.809Z,100425.53
2024-03-12T13:01:24.826Z,100460.50
2024-03-12T13:06:27.435Z,100420.72
2024-03-12T13:11:30.314Z,100467.84
2024-03-12T13:16:39.874Z,100460.69
2024-03-12T13:21:38.171Z,100462.28
2024-03-12T13:26:36.425Z,100460.56
2024-03-12T13:31:34.917Z,100428.63
2024-03-12T13:36:32.344Z,100376.53
2024-03-12T13:41:30.083Z,100453.13
2024-03-12T13:46:28.725Z,100426.34
2024-03-12T13:51:27.007Z,100456.78
2024-03-12T13:56:24.492Z,100426.50
2024-03-12T14:01:23.619Z,100445.84
2024-03-12T14:06:21.155Z,100451.03
2024-03-12T14:11:25.924Z,100446.94
2024-03-12T14:16:27.094Z,100461.31
2024-03-12T14:21:28.880Z,100463.13
2024-03-12T14:26:29.761Z,100430.16
2024-03-12T14:31:28.335Z,100416.16
2024-03-12T14:36:26.129Z,100448.84
2024-03-12T14:41:27.797Z,100425.34
2024-03-12T14:46:27.133Z,100482.03
2024-03-12T14:51:24.849Z,100480.38
2024-03-12T14:56:24.736Z,100446.28
2024-03-12T15:01:23.683Z,100479.00
2024-03-12T15:11:58.835Z,100487.53
2024-03-12T15:17:35.340Z,100457.94
2024-03-12T15:23:10.611Z,100496.81
2024-03-12T15:28:11.260Z,100442.44
2024-03-12T15:33:09.871Z,100418.69
2024-03-12T15:38:13.737Z,100507.88
2024-03-12T15:43:29.988Z,100386.53
2024-03-12T15:48:41.830Z,100457.75
2024-03-12T15:54:05.471Z,100505.72
2024-03-12T15:59:10.893Z,100488.25
2024-03-12T16:04:35.780Z,100518.75
2024-03-12T16:09:36.295Z,100513.19
2024-03-12T16:14:35.000Z,100530.94
2024-03-12T16:19:44.328Z,100531.44
2024-03-12T16:24:45.984Z,100475.59
2024-03-12T16:29:56.952Z,100538.19
2024-03-12T16:35:23.094Z,100543.22
2024-03-12T16:40:55.799Z,100512.34
2024-03-12T16:46:40.523Z,100534.66
2024-03-12T17:05:35.042Z,100491.38
2024-03-12T17:19:23.837Z,100523.13
2024-03-12T17:32:35.712Z,100555.19
2024-03-12T17:38:49.935Z,100567.59
2024-03-12T19:20:38.736Z,100584.25
